Time;durP1;ratioP1;P1;durP2;ratioP2;P2;SDS_P1;SDS_P2;PMS_P1;PMS_P2;Temp;Humidity;BMP_temperature;BMP_pressure;BME280_temperature;BME280_humidity;BME280_pressure;Samples;Min_cycle;Max_cycle;Signal;HPM_P1;HPM_P2
2022/04/01 00:01:08;;;;;;;0.98;0.60;;;;;;;25.91;27.45;101342.25;4884781;29;20044;-45
2022/04/01 00:03:37;;;;;;;2.10;0.80;;;;;;;25.91;27.64;101343.16;4901960;29;20052;-48
2022/04/01 00:06:05;;;;;;;1.10;0.50;;;;;;;25.93;27.43;101335.25;4900979;29;20092;-48
2022/04/01 00:08:34;;;;;;;1.40;0.70;;;;;;;25.91;27.55;101353.66;4901557;29;20457;-50
2022/04/01 00:11:03;;;;;;;1.17;0.63;;;;;;;26.00;27.31;101352.88;4901254;29;20032;-47
2022/04/01 00:13:32;;;;;;;1.20;0.55;;;;;;;25.96;27.73;101353.72;4901279;29;20052;-47
2022/04/01 00:16:00;;;;;;;2.20;0.75;;;;;;;25.89;27.52;101341.38;4901759;29;20398;-45
2022/04/01 00:18:29;;;;;;;2.90;1.00;;;;;;;25.81;27.82;101340.41;4901408;29;20049;-46
2022/04/01 00:20:58;;;;;;;0.70;0.30;;;;;;;25.82;27.71;101337.78;4901428;29;20039;-47
2022/04/01 00:23:26;;;;;;;1.23;0.70;;;;;;;25.85;27.79;101348.31;4901261;29;20549;-51
2022/04/01 00:25:54;;;;;;;1.15;0.60;;;;;;;25.88;27.56;101345.75;4901176;29;20057;-47
2022/04/01 00:28:23;;;;;;;1.10;0.60;;;;;;;25.93;27.15;101344.06;4900876;29;20042;-50
2022/04/01 00:30:51;;;;;;;1.40;0.60;;;;;;;25.91;27.36;101343.16;4901172;29;20032;-49
2022/04/01 00:33:20;;;;;;;1.38;0.75;;;;;;;25.88;27.12;101337.00;4901019;29;20036;-50
2022/04/01 00:35:48;;;;;;;2.97;1.05;;;;;;;25.86;27.38;101342.22;4901214;29;20040;-48
2022/04/01 00:38:17;;;;;;;2.47;0.60;;;;;;;25.86;27.18;101347.47;4901115;29;20084;-53
2022/04/01 00:40:46;;;;;;;2.03;0.73;;;;;;;25.87;27.41;101351.84;4900988;29;20040;-49
2022/04/01 00:43:14;;;;;;;0.98;0.60;;;;;;;25.91;27.44;101352.75;4901256;29;20104;-48
2022/04/01 00:45:43;;;;;;;1.70;0.82;;;;;;;25.77;27.66;101363.13;4900929;29;20470;-52
2022/04/01 00:48:12;;;;;;;1.58;0.60;;;;;;;25.75;27.45;101363.09;4900485;29;20075;-49
2022/04/01 00:50:40;;;;;;;1.58;0.50;;;;;;;25.75;27.25;101373.63;4900562;29;20085;-50
2022/04/01 00:53:09;;;;;;;0.75;0.57;;;;;;;25.81;27.47;101372.84;4900680;29;20028;-47
2022/04/01 00:55:37;;;;;;;1.75;0.68;;;;;;;25.82;27.06;101373.69;4900261;29;20040;-51
2022/04/01 00:58:06;;;;;;;1.60;0.80;;;;;;;25.81;27.17;101377.19;4884394;29;20035;-48
2022/04/01 01:00:36;;;;;;;1.85;0.82;;;;;;;25.84;27.18;101379.84;4884119;29;20017;-51
2022/04/01 01:03:06;;;;;;;2.25;0.70;;;;;;;25.82;27.29;101379.81;4900128;29;20483;-47
2022/04/01 01:05:34;;;;;;;1.98;0.70;;;;;;;25.84;27.46;101385.97;4900652;29;20423;-49
2022/04/01 01:08:05;;;;;;;0.88;0.50;;;;;;;25.75;27.39;101383.25;4899795;29;20037;-47
2022/04/01 01:10:34;;;;;;;1.13;0.50;;;;;;;25.74;27.23;101371.84;4883933;29;20443;-48
2022/04/01 01:13:02;;;;;;;1.42;0.60;;;;;;;25.77;27.36;101382.41;4900502;29;20048;-51
2022/04/01 01:15:31;;;;;;;1.08;0.55;;;;;;;25.80;27.14;101373.69;4900375;29;20084;-52
2022/04/01 01:17:59;;;;;;;2.17;0.75;;;;;;;25.79;27.19;101370.16;4900035;29;20120;-53
2022/04/01 01:20:27;;;;;;;1.90;0.82;;;;;;;25.77;27.33;101378.91;4899909;29;20084;-49
2022/04/01 01:22:57;;;;;;;0.90;0.47;;;;;;;25.76;27.20;101382.41;4899891;29;20478;-49
2022/04/01 01:25:27;;;;;;;2.13;0.88;;;;;;;25.68;27.42;101387.56;4883300;29;20040;-48
2022/04/01 01:27:54;;;;;;;1.73;0.52;;;;;;;25.67;27.56;101398.03;4899497;29;20031;-49
2022/04/01 01:30:24;;;;;;;1.30;0.68;;;;;;;25.68;27.54;101398.06;4900483;29;20111;-50
2022/04/01 01:32:53;;;;;;;2.17;0.73;;;;;;;25.62;27.75;101401.50;4900043;29;20033;-49
2022/04/01 01:35:22;;;;;;;2.05;0.57;;;;;;;25.69;27.43;101415.59;4900085;29;20025;-49
2022/04/01 01:37:50;;;;;;;1.55;0.63;;;;;;;25.68;27.09;101412.94;4892567;29;20036;-44
2022/04/01 01:40:19;;;;;;;3.63;0.90;;;;;;;25.70;27.37;101390.19;4899962;29;20024;-46
2022/04/01 01:42:47;;;;;;;1.33;0.55;;;;;;;25.72;27.43;101389.38;4900179;29;20107;-47
2022/04/01 01:45:16;;;;;;;2.28;0.80;;;;;;;25.73;27.34;101390.25;4899765;29;20497;-50
2022/04/01 01:47:44;;;;;;;0.85;0.60;;;;;;;25.74;27.25;101387.63;4899543;29;20039;-49
2022/04/01 01:55:48;;;;;;;1.30;0.50;;;;;;;25.70;27.22;101417.38;4879358;29;20051;-49
2022/04/01 01:58:16;;;;;;;1.58;0.55;;;;;;;25.66;27.55;101410.31;4899649;29;20115;-48
2022/04/01 02:00:45;;;;;;;1.85;0.50;;;;;;;25.66;27.53;101391.00;4899801;29;20025;-50
2022/04/01 02:03:14;;;;;;;0.70;0.50;;;;;;;25.63;27.16;101405.00;4899853;29;20029;-48
2022/04/01 02:05:41;;;;;;;0.82;0.43;;;;;;;25.61;27.37;101398.84;4883218;29;20029;-48
2022/04/01 02:08:10;;;;;;;1.30;0.50;;;;;;;25.61;27.27;101388.34;4898872;29;20040;-51
2022/04/01 02:10:38;;;;;;;1.13;0.50;;;;;;;25.57;27.32;101383.88;4899273;29;20061;-49
2022/04/01 02:13:07;;;;;;;2.05;0.40;;;;;;;25.65;27.53;101392.78;4900007;29;20033;-48
2022/04/01 02:15:36;;;;;;;0.55;0.40;;;;;;;25.54;27.48;101387.38;4899112;29;20103;-50
2022/04/01 02:18:04;;;;;;;1.80;0.57;;;;;;;25.56;27.48;101383.03;4882282;29;20068;-53
2022/04/01 02:20:34;;;;;;;1.98;0.50;;;;;;;25.62;27.34;101390.09;4899116;29;20032;-52
2022/04/01 02:23:03;;;;;;;1.50;0.75;;;;;;;25.63;27.21;101394.50;4899025;29;20032;-50
2022/04/01 02:25:32;;;;;;;0.73;0.40;;;;;;;25.63;27.28;101397.13;4899169;29;20032;-52
2022/04/01 02:28:01;;;;;;;1.77;0.57;;;;;;;25.57;27.36;101394.41;4898986;29;20426;-51
2022/04/01 02:30:30;;;;;;;1.08;0.35;;;;;;;25.65;27.48;101408.53;4898869;29;20060;-52
2022/04/01 02:32:58;;;;;;;0.88;0.47;;;;;;;25.58;27.19;101418.09;4898926;29;20486;-51
2022/04/01 02:35:27;;;;;;;0.52;0.32;;;;;;;25.58;27.26;101418.09;4899378;29;20352;-46
2022/04/01 02:37:55;;;;;;;0.60;0.30;;;;;;;25.57;27.24;101420.66;4898711;29;20501;-49
2022/04/01 02:40:24;;;;;;;1.13;0.50;;;;;;;25.58;27.46;101420.72;4898939;29;20386;-48
2022/04/01 02:42:54;;;;;;;1.42;0.60;;;;;;;25.62;27.34;101419.91;4899071;29;20040;-55
2022/04/01 02:45:24;;;;;;;1.27;0.40;;;;;;;25.57;27.16;101405.81;4898166;29;20490;-51
2022/04/01 02:47:52;;;;;;;0.82;0.20;;;;;;;25.54;27.51;101392.63;4898038;29;20037;-55
2022/04/01 02:50:21;;;;;;;2.80;0.77;;;;;;;25.51;27.39;101397.84;4898345;29;20116;-48
2022/04/01 02:52:49;;;;;;;0.88;0.70;;;;;;;25.52;27.39;101390.84;4898463;29;20457;-48
2022/04/01 02:55:18;;;;;;;0.45;0.30;;;;;;;25.50;27.50;101380.31;4898416;29;20033;-49
2022/04/01 02:57:47;;;;;;;0.95;0.40;;;;;;;25.50;27.37;101385.56;4898300;29;20028;-51
2022/04/01 03:00:21;;;;;;;1.33;0.55;;;;;;;25.48;27.63;101388.19;4898528;29;20032;-50
2022/04/01 03:02:50;;;;;;;1.80;0.50;;;;;;;25.45;27.49;101377.63;4882391;29;20029;-49
2022/04/01 03:05:19;;;;;;;0.60;0.30;;;;;;;25.45;27.25;101385.50;4898182;29;20054;-48
2022/04/01 03:07:47;;;;;;;1.40;0.38;;;;;;;25.48;27.59;101375.03;4897949;29;20095;-48
2022/04/01 03:10:17;;;;;;;1.27;0.63;;;;;;;25.48;27.34;101376.81;4898367;29;20115;-49
2022/04/01 03:12:46;;;;;;;0.70;0.40;;;;;;;25.52;27.21;101381.22;4898064;29;20390;-48
2022/04/01 03:15:15;;;;;;;1.35;0.70;;;;;;;25.46;27.50;101386.41;4881574;29;20075;-47
2022/04/01 03:17:44;;;;;;;0.63;0.38;;;;;;;25.50;27.26;101392.56;4898019;29;20517;-45
2022/04/01 03:20:13;;;;;;;1.67;0.60;;;;;;;25.44;27.18;101396.88;4897801;29;20032;-46
2022/04/01 03:22:42;;;;;;;0.93;0.40;;;;;;;25.46;27.30;101382.03;4898161;29;20043;-52
2022/04/01 03:25:15;;;;;;;1.58;0.45;;;;;;;25.45;27.55;101393.38;4898066;29;20052;-47
2022/04/01 03:27:44;;;;;;;0.68;0.38;;;;;;;25.51;27.40;101386.47;4897857;29;20025;-46
2022/04/01 03:30:13;;;;;;;0.77;0.30;;;;;;;25.42;27.51;101393.34;4898302;29;20037;-46
2022/04/01 03:32:42;;;;;;;2.80;0.60;;;;;;;25.44;27.18;101398.63;4898060;29;20033;-51
2022/04/01 03:35:14;;;;;;;0.60;0.32;;;;;;;25.46;27.39;101389.03;4898495;29;20084;-48
2022/04/01 03:37:45;;;;;;;1.05;0.50;;;;;;;25.43;27.41;101395.09;4898110;29;20383;-46
2022/04/01 03:40:14;;;;;;;0.50;0.30;;;;;;;25.38;27.69;101398.50;4898249;29;20072;-46
2022/04/01 03:42:44;;;;;;;2.38;0.75;;;;;;;25.39;27.47;101393.28;4898155;29;20036;-48
2022/04/01 03:45:14;;;;;;;0.77;0.40;;;;;;;25.38;27.48;101393.25;4898256;29;20071;-46
2022/04/01 03:47:51;;;;;;;0.50;0.30;;;;;;;25.41;27.39;101393.28;4897748;29;20068;-46
2022/04/01 03:50:31;;;;;;;1.85;0.68;;;;;;;25.41;27.36;101401.19;4897968;29;20033;-46
2022/04/01 03:53:10;;;;;;;0.57;0.25;;;;;;;25.38;27.33;101398.50;4881452;29;20141;-49
2022/04/01 03:55:41;;;;;;;0.50;0.30;;;;;;;25.38;27.55;101396.78;4897974;29;20037;-48
2022/04/01 03:58:13;;;;;;;0.85;0.30;;;;;;;25.37;27.33;101394.09;4881556;29;20450;-52
2022/04/01 04:00:42;;;;;;;0.20;0.20;;;;;;;25.38;27.25;101406.38;4897983;29;20080;-47
2022/04/01 04:03:12;;;;;;;0.32;0.22;;;;;;;25.40;27.30;101402.03;4897907;29;20029;-50
2022/04/01 04:05:41;;;;;;;0.35;0.20;;;;;;;25.38;27.50;101404.66;4898078;29;20040;-46
2022/04/01 04:08:11;;;;;;;1.33;0.60;;;;;;;25.39;27.45;101403.78;4896676;29;20036;-44
2022/04/01 04:10:40;;;;;;;0.28;0.20;;;;;;;25.37;27.07;101413.41;4881257;29;20036;-50
2022/04/01 04:13:12;;;;;;;0.52;0.30;;;;;;;25.36;27.51;101410.72;4897709;29;20036;-46
2022/04/01 04:16:08;;;;;;;1.98;0.50;;;;;;;25.34;27.21;101411.59;4881043;29;20106;-44
2022/04/01 04:18:43;;;;;;;1.25;0.40;;;;;;;25.38;27.42;101412.53;4897530;29;20497;-47
2022/04/01 04:21:17;;;;;;;1.10;0.40;;;;;;;25.37;27.30;101413.41;4897681;29;20063;-45
2022/04/01 04:23:48;;;;;;;0.65;0.40;;;;;;;25.36;27.07;101411.63;4897774;29;20427;-47
2022/04/01 04:26:23;;;;;;;1.85;0.50;;;;;;;25.38;27.43;101419.50;4897294;29;20036;-46
2022/04/01 04:28:56;;;;;;;1.05;0.32;;;;;;;25.33;27.16;101414.19;4881178;29;20029;-46
2022/04/01 04:31:27;;;;;;;0.77;0.40;;;;;;;25.36;27.21;101416.88;4881486;29;20032;-46
2022/04/01 04:33:57;;;;;;;0.50;0.30;;;;;;;25.33;27.32;101409.81;4881133;29;20025;-47
2022/04/01 04:36:33;;;;;;;0.45;0.22;;;;;;;25.34;27.41;101422.09;4898100;29;20039;-45
2022/04/01 04:39:05;;;;;;;0.47;0.35;;;;;;;25.31;27.07;101419.44;4880894;29;20075;-45
2022/04/01 04:41:34;;;;;;;0.95;0.50;;;;;;;25.30;27.03;101417.69;4897499;29;20032;-45
2022/04/01 04:44:03;;;;;;;0.55;0.40;;;;;;;25.30;27.48;101428.19;4898506;29;20032;-45
2022/04/01 04:46:31;;;;;;;0.60;0.40;;;;;;;25.22;27.64;101416.66;4900803;29;20052;-47
2022/04/01 04:49:00;;;;;;;1.35;0.47;;;;;;;25.25;27.39;101421.06;4900735;29;20036;-44
2022/04/01 04:51:28;;;;;;;1.30;0.45;;;;;;;25.25;27.56;101424.59;4900950;29;20044;-45
2022/04/01 04:54:03;;;;;;;0.80;0.40;;;;;;;25.26;27.18;101428.09;4900715;29;20033;-45
2022/04/01 04:56:32;;;;;;;0.65;0.30;;;;;;;25.22;27.50;101426.31;4883891;29;20029;-46
2022/04/01 04:59:02;;;;;;;0.68;0.32;;;;;;;25.24;27.30;101427.19;4884101;29;20024;-45
2022/04/01 05:01:38;;;;;;;0.40;0.30;;;;;;;25.23;27.33;101425.44;4900583;29;20024;-45
2022/04/01 05:04:34;;;;;;;1.83;0.50;;;;;;;25.22;27.29;101418.44;4884292;29;20108;-45
2022/04/01 05:07:40;;;;;;;1.30;0.30;;;;;;;25.26;27.53;101425.47;4891260;29;20131;-49
2022/04/01 05:10:26;;;;;;;0.90;0.40;;;;;;;25.26;27.13;101433.34;4893522;29;20041;-45
2022/04/01 05:13:09;;;;;;;0.38;0.20;;;;;;;25.25;27.34;101442.97;4884139;29;20025;-46
2022/04/01 05:15:40;;;;;;;0.57;0.30;;;;;;;25.22;27.36;101432.41;4900804;29;20088;-46
2022/04/01 05:18:14;;;;;;;0.20;0.20;;;;;;;25.22;27.14;101439.44;4900426;29;20143;-48
2022/04/01 05:21:02;;;;;;;4.32;0.50;;;;;;;25.27;27.16;101440.34;4900230;29;20032;-49
2022/04/01 05:23:34;;;;;;;0.32;0.20;;;;;;;25.25;26.98;101444.69;4883446;29;20032;-49
2022/04/01 05:26:12;;;;;;;1.15;0.40;;;;;;;25.17;27.26;101436.72;4900246;29;20029;-48
2022/04/01 05:28:54;;;;;;;0.45;0.20;;;;;;;25.18;27.38;101441.09;4900116;29;20043;-47
2022/04/01 05:31:48;;;;;;;0.25;0.22;;;;;;;25.16;27.38;101440.19;4882952;29;20033;-44
2022/04/01 05:34:38;;;;;;;0.73;0.20;;;;;;;25.18;27.45;101441.09;4883299;29;20115;-51
2022/04/01 05:37:07;;;;;;;0.85;0.30;;;;;;;25.18;27.01;101441.09;4897143;29;20052;-44
2022/04/01 05:39:37;;;;;;;0.30;0.20;;;;;;;25.18;27.13;101449.88;4900262;29;20525;-45
2022/04/01 05:42:07;;;;;;;1.17;0.40;;;;;;;25.14;27.12;101447.19;4900209;29;20025;-47
2022/04/01 05:44:36;;;;;;;0.50;0.22;;;;;;;25.12;27.25;101449.78;4899775;29;20028;-46
2022/04/01 05:47:06;;;;;;;0.50;0.20;;;;;;;25.15;27.01;101449.81;4899725;29;20089;-45
2022/04/01 05:49:35;;;;;;;0.88;0.40;;;;;;;25.17;27.19;101455.09;4899444;29;20052;-44
2022/04/01 05:52:04;;;;;;;1.52;0.50;;;;;;;25.12;27.52;101462.91;4883220;29;20039;-48
2022/04/01 05:54:32;;;;;;;1.23;0.45;;;;;;;25.01;27.31;101444.34;4899321;29;20025;-48
2022/04/01 05:57:02;;;;;;;0.40;0.25;;;;;;;25.10;27.37;101464.59;4867245;29;20035;-48
2022/04/01 05:59:29;;;;;;;0.80;0.38;;;;;;;25.12;26.95;101465.53;4883275;29;20056;-45
2022/04/01 06:02:38;;;;;;;0.55;0.35;;;;;;;25.09;27.23;101467.22;4899275;29;20028;-46
2022/04/01 06:05:08;;;;;;;0.77;0.30;;;;;;;25.12;27.37;101472.53;4875418;29;20048;-48
2022/04/01 06:07:57;;;;;;;0.40;0.20;;;;;;;25.11;27.32;101473.38;4882558;29;20376;-46
2022/04/01 06:10:37;;;;;;;0.77;0.52;;;;;;;25.10;27.37;101482.13;4895994;29;20127;-48
2022/04/01 06:13:37;;;;;;;0.85;0.38;;;;;;;25.12;27.34;101469.91;4899323;29;20079;-44
2022/04/01 06:16:14;;;;;;;0.98;0.50;;;;;;;25.17;27.06;101474.38;4889873;29;20033;-48
2022/04/01 06:19:20;;;;;;;0.85;0.50;;;;;;;25.13;27.29;101484.81;4898924;29;20552;-45
2022/04/01 06:21:53;;;;;;;0.50;0.25;;;;;;;25.10;27.12;101485.59;4892930;29;20055;-45
2022/04/01 06:24:46;;;;;;;0.73;0.30;;;;;;;25.08;27.49;101489.09;4899114;29;20035;-45
2022/04/01 06:27:23;;;;;;;0.80;0.32;;;;;;;25.07;27.46;101495.19;4893695;29;20044;-46
2022/04/01 06:30:08;;;;;;;1.20;0.50;;;;;;;25.12;27.05;101485.66;4882979;29;20035;-45
2022/04/01 06:32:58;;;;;;;1.10;0.50;;;;;;;25.11;27.21;101490.00;4898962;29;20398;-46
2022/04/01 06:35:35;;;;;;;0.85;0.45;;;;;;;25.11;27.42;101494.38;4899073;29;20076;-51
2022/04/01 06:38:05;;;;;;;1.83;0.50;;;;;;;25.08;27.46;101486.44;4898869;29;20029;-45
2022/04/01 06:40:34;;;;;;;6.72;0.70;;;;;;;25.09;27.18;101490.84;4899010;29;20024;-49
2022/04/01 06:43:04;;;;;;;2.50;0.73;;;;;;;25.10;27.09;101492.63;4898803;29;20084;-45
2022/04/01 06:45:33;;;;;;;1.40;0.47;;;;;;;25.11;27.10;101492.63;4882490;29;20060;-45
2022/04/01 06:48:01;;;;;;;1.27;0.50;;;;;;;25.08;27.55;101497.81;4898651;29;20394;-51
2022/04/01 06:50:30;;;;;;;1.50;0.60;;;;;;;25.08;27.27;101494.34;4898966;29;20033;-49
2022/04/01 06:52:58;;;;;;;1.83;0.70;;;;;;;25.08;27.32;101499.56;4899045;29;20063;-51
2022/04/01 06:55:27;;;;;;;1.75;0.68;;;;;;;25.10;27.55;101500.50;4898501;29;20036;-45
2022/04/01 06:57:56;;;;;;;2.92;0.65;;;;;;;25.10;27.50;101498.75;4898675;29;20387;-45
2022/04/01 07:00:26;;;;;;;1.60;0.60;;;;;;;25.08;27.25;101504.84;4898525;29;20036;-47
2022/04/01 07:02:55;;;;;;;1.83;0.60;;;;;;;25.11;27.34;101504.88;4898740;29;20037;-45
2022/04/01 07:05:23;;;;;;;1.63;0.65;;;;;;;25.14;27.12;101503.19;4898612;29;20084;-47
2022/04/01 07:07:52;;;;;;;1.38;0.52;;;;;;;25.14;27.53;101504.94;4897761;29;20025;-44
2022/04/01 07:10:21;;;;;;;1.33;0.60;;;;;;;25.16;27.25;101503.19;4882554;29;20055;-48
2022/04/01 07:12:51;;;;;;;3.67;0.90;;;;;;;25.20;27.41;101499.78;4898530;29;20521;-47
2022/04/01 07:15:19;;;;;;;2.20;0.80;;;;;;;25.21;27.46;101503.31;4898565;29;20056;-48
2022/04/01 07:17:48;;;;;;;3.10;0.65;;;;;;;25.22;27.85;101494.56;4897949;29;20048;-48
2022/04/01 07:20:17;;;;;;;1.48;0.60;;;;;;;25.26;27.37;101499.88;4898576;29;20024;-49
2022/04/01 07:22:45;;;;;;;2.00;0.70;;;;;;;25.35;27.51;101493.91;4898198;29;20434;-44
2022/04/01 07:25:14;;;;;;;2.78;0.80;;;;;;;25.34;27.82;101490.38;4882067;29;20040;-50
2022/04/01 07:27:43;;;;;;;0.50;0.30;;;;;;;25.36;27.51;101494.75;4898055;29;20111;-44
2022/04/01 07:30:12;;;;;;;3.15;0.40;;;;;;;25.39;27.82;101500.06;4898186;29;20041;-48
2022/04/01 07:32:42;;;;;;;1.08;0.50;;;;;;;25.42;27.85;101493.16;4897962;29;20040;-44
2022/04/01 07:35:13;;;;;;;2.08;0.95;;;;;;;25.44;27.95;101501.94;4881795;29;20366;-44
2022/04/01 07:37:43;;;;;;;3.08;0.63;;;;;;;25.48;27.94;101498.50;4881349;29;20037;-44
2022/04/01 07:40:13;;;;;;;2.00;0.93;;;;;;;25.55;27.74;101499.47;4881542;29;20033;-44
2022/04/01 07:42:42;;;;;;;1.23;0.40;;;;;;;25.60;27.63;101497.81;4898109;29;20037;-49
2022/04/01 07:45:10;;;;;;;0.65;0.40;;;;;;;25.61;27.72;101494.31;4898156;29;20036;-45
2022/04/01 07:47:44;;;;;;;2.72;0.75;;;;;;;25.65;27.63;101492.63;4897852;29;20035;-49
2022/04/01 07:50:14;;;;;;;0.95;0.55;;;;;;;25.61;27.83;101478.56;4897740;29;20064;-43
2022/04/01 07:52:43;;;;;;;4.03;0.70;;;;;;;25.73;27.73;101488.34;4897492;29;20044;-45
2022/04/01 07:55:13;;;;;;;2.22;0.52;;;;;;;25.76;28.02;101495.41;4897874;29;20032;-50
2022/04/01 07:57:42;;;;;;;4.47;0.68;;;;;;;25.77;27.66;101498.03;4897580;29;20040;-46
2022/04/01 08:00:10;;;;;;;1.15;0.50;;;;;;;25.77;28.00;101494.53;4897593;29;20478;-49
2022/04/01 08:02:39;;;;;;;3.80;0.50;;;;;;;25.84;28.00;101504.25;4898159;29;20096;-46
2022/04/01 08:05:09;;;;;;;0.88;0.50;;;;;;;25.88;27.94;101499.94;4897757;29;20394;-46
2022/04/01 08:07:36;;;;;;;2.03;0.70;;;;;;;25.91;27.76;101498.22;4897697;29;20028;-45
2022/04/01 08:10:06;;;;;;;1.92;0.50;;;;;;;25.97;27.62;101505.31;4898173;29;20067;-45
2022/04/01 08:12:35;;;;;;;1.23;0.50;;;;;;;25.98;27.76;101507.06;4897761;29;20115;-44
2022/04/01 08:15:05;;;;;;;0.88;0.47;;;;;;;26.02;27.86;101513.25;4881315;29;20028;-48
2022/04/01 08:17:34;;;;;;;0.98;0.30;;;;;;;26.08;27.76;101508.09;4898097;29;20140;-51
2022/04/01 08:20:02;;;;;;;1.17;0.38;;;;;;;26.10;27.96;101514.25;4901597;29;20037;-46
2022/04/01 08:22:31;;;;;;;1.73;0.68;;;;;;;26.11;27.68;101521.31;4901434;29;20028;-44
2022/04/01 08:25:00;;;;;;;1.88;0.50;;;;;;;26.16;28.10;101510.84;4901581;29;20031;-48
2022/04/01 08:27:28;;;;;;;0.75;0.20;;;;;;;26.15;27.90;101512.56;4900794;29;20470;-45
2022/04/01 08:29:59;;;;;;;1.05;0.50;;;;;;;26.23;27.57;101515.28;4884316;29;20043;-49
2022/04/01 08:32:29;;;;;;;1.42;0.57;;;;;;;26.23;27.62;101513.56;4901346;29;20039;-46
2022/04/01 08:34:59;;;;;;;1.95;0.40;;;;;;;26.30;27.79;101513.66;4900814;29;20029;-45
2022/04/01 08:37:27;;;;;;;2.33;0.85;;;;;;;26.30;27.70;101519.78;4900973;29;20033;-45
2022/04/01 08:39:58;;;;;;;2.67;0.55;;;;;;;26.33;27.72;101513.66;4884365;29;20095;-47
2022/04/01 08:42:27;;;;;;;2.25;0.70;;;;;;;26.36;27.61;101518.97;4901093;29;20111;-46
2022/04/01 08:44:56;;;;;;;1.08;0.47;;;;;;;26.38;27.74;101515.50;4901067;29;20024;-46
2022/04/01 08:47:25;;;;;;;1.08;0.40;;;;;;;26.43;27.65;101510.28;4884148;29;20041;-45
2022/04/01 08:49:54;;;;;;;2.97;0.65;;;;;;;26.49;27.43;101520.00;4884087;29;20033;-46
2022/04/01 08:52:23;;;;;;;1.83;0.50;;;;;;;26.50;27.78;101524.38;4884386;29;20032;-51
2022/04/01 08:54:52;;;;;;;2.80;0.50;;;;;;;26.52;27.50;101520.91;4901218;29;20028;-48
2022/04/01 08:57:21;;;;;;;3.15;0.98;;;;;;;26.51;27.57;101508.59;4884026;29;20119;-46
2022/04/01 08:59:50;;;;;;;1.67;0.73;;;;;;;26.59;27.54;101520.97;4900793;29;20096;-52
2022/04/01 09:02:19;;;;;;;1.42;0.60;;;;;;;26.60;27.40;101520.13;4900817;29;20029;-46
2022/04/01 09:04:53;;;;;;;1.75;0.50;;;;;;;26.63;27.34;101523.66;4892939;29;20111;-47
2022/04/01 09:07:22;;;;;;;2.35;0.80;;;;;;;26.64;27.44;101520.16;4900767;29;20036;-48
2022/04/01 09:09:50;;;;;;;1.67;0.65;;;;;;;26.66;27.77;101525.41;4883987;29;20044;-45
2022/04/01 09:12:19;;;;;;;0.95;0.40;;;;;;;26.68;27.43;101518.44;4884085;29;20065;-47
2022/04/01 09:14:52;;;;;;;1.60;0.60;;;;;;;26.72;27.27;101529.88;4900451;29;20033;-49
2022/04/01 09:17:21;;;;;;;1.50;0.30;;;;;;;26.77;27.51;101522.91;4883496;29;20494;-45
2022/04/01 09:20:03;;;;;;;1.15;0.60;;;;;;;26.76;27.48;101521.13;4900675;29;20405;-48
2022/04/01 09:22:31;;;;;;;1.33;0.43;;;;;;;26.78;27.22;101525.56;4900356;29;20489;-45
2022/04/01 09:25:02;;;;;;;1.42;0.55;;;;;;;26.80;27.11;101520.34;4883289;29;20466;-52
2022/04/01 09:27:51;;;;;;;4.22;0.70;;;;;;;26.82;27.11;101523.88;4899908;29;20028;-52
2022/04/01 09:30:21;;;;;;;2.13;0.50;;;;;;;26.81;27.14;101538.75;4899395;29;20036;-44
2022/04/01 09:32:52;;;;;;;1.35;0.30;;;;;;;26.83;26.60;101533.53;4883580;29;20471;-47
2022/04/01 09:35:23;;;;;;;2.40;0.60;;;;;;;26.82;26.51;101531.78;4882985;29;20542;-44
2022/04/01 09:37:55;;;;;;;3.28;0.82;;;;;;;26.82;26.53;101530.00;4900108;29;20035;-48
2022/04/01 09:40:24;;;;;;;1.35;0.50;;;;;;;26.83;26.49;101529.13;4899965;29;20035;-47
2022/04/01 09:42:56;;;;;;;1.48;0.50;;;;;;;26.84;26.08;101533.53;4899994;29;20040;-44
2022/04/01 09:45:26;;;;;;;1.55;0.50;;;;;;;26.84;26.03;101530.91;4899875;29;20056;-47
2022/04/01 09:48:05;;;;;;;2.28;0.60;;;;;;;26.86;26.17;101532.66;4899683;29;20028;-47
2022/04/01 09:50:38;;;;;;;1.55;0.52;;;;;;;26.84;26.03;101530.03;4899831;29;20036;-52
2022/04/01 09:53:07;;;;;;;1.25;0.60;;;;;;;26.85;26.03;101539.69;4900361;29;20435;-45
2022/04/01 09:55:37;;;;;;;2.50;0.60;;;;;;;26.82;25.72;101543.16;4900269;29;20474;-43
2022/04/01 09:58:07;;;;;;;4.43;0.52;;;;;;;26.86;25.57;101532.66;4899782;29;20065;-44
2022/04/01 10:00:37;;;;;;;4.03;0.65;;;;;;;26.82;25.54;101527.38;4899538;29;20067;-44
2022/04/01 10:03:06;;;;;;;1.73;0.40;;;;;;;26.86;25.37;101535.31;4899588;29;20028;-44
2022/04/01 10:05:40;;;;;;;2.25;0.75;;;;;;;26.82;25.78;101527.38;4899637;29;20063;-47
2022/04/01 10:08:10;;;;;;;2.08;0.52;;;;;;;26.83;25.42;101539.66;4899244;29;20036;-47
2022/04/01 10:10:39;;;;;;;1.08;0.40;;;;;;;26.84;25.48;101530.91;4900303;29;20116;-47
2022/04/01 10:13:12;;;;;;;3.80;0.50;;;;;;;26.90;25.66;101523.94;4899310;29;20040;-45
2022/04/01 10:15:42;;;;;;;3.50;0.80;;;;;;;26.86;25.66;101530.03;4899291;29;20120;-46
2022/04/01 10:18:12;;;;;;;2.15;0.43;;;;;;;26.89;25.32;101527.44;4899380;29;20505;-46
2022/04/01 10:20:41;;;;;;;2.40;0.63;;;;;;;26.84;25.18;101528.28;4899564;29;20036;-48
2022/04/01 10:23:11;;;;;;;2.42;0.55;;;;;;;26.87;25.45;101521.28;4899287;29;20368;-45
2022/04/01 10:25:51;;;;;;;5.30;0.80;;;;;;;26.93;25.38;101534.50;4899034;29;20037;-53
2022/04/01 10:28:21;;;;;;;1.42;0.40;;;;;;;26.93;25.14;101537.16;4898289;29;20037;-46
2022/04/01 10:30:54;;;;;;;3.13;0.50;;;;;;;26.90;25.17;101534.47;4882222;29;20053;-45
2022/04/01 10:33:28;;;;;;;4.13;0.80;;;;;;;26.94;25.24;101533.66;4898894;29;20029;-45
2022/04/01 10:35:57;;;;;;;2.78;0.43;;;;;;;26.93;24.99;101537.16;4898741;29;20479;-48
2022/04/01 10:38:29;;;;;;;2.70;0.70;;;;;;;26.98;24.82;101519.63;4898787;29;20435;-46
2022/04/01 10:41:09;;;;;;;1.42;0.55;;;;;;;26.97;25.22;101528.41;4898987;29;20056;-48
2022/04/01 10:43:41;;;;;;;3.00;0.63;;;;;;;26.97;24.74;101524.00;4882722;29;20103;-44
2022/04/01 10:46:12;;;;;;;3.83;0.82;;;;;;;26.92;24.64;101522.22;4898920;29;20494;-45
2022/04/01 10:52:03;;;;;;;1.60;0.60;;;;;;;26.85;25.01;101526.53;4895630;29;20037;-44
2022/04/01 10:54:31;;;;;;;1.77;0.57;;;;;;;26.86;24.76;101523.03;4898950;29;20032;-44
2022/04/01 10:57:06;;;;;;;4.10;1.02;;;;;;;26.86;24.71;101522.16;4898860;29;20257;-50
2022/04/01 10:59:54;;;;;;;1.77;0.38;;;;;;;26.85;25.31;101518.66;4898700;29;20033;-44
2022/04/01 11:02:24;;;;;;;1.42;0.80;;;;;;;26.82;24.91;101508.94;4898793;29;20033;-44
2022/04/01 11:04:53;;;;;;;1.27;0.60;;;;;;;26.83;25.01;101510.72;4898753;29;20040;-44
2022/04/01 11:07:24;;;;;;;1.27;0.45;;;;;;;26.87;25.05;101519.53;4898047;29;20088;-45
2022/04/01 11:09:55;;;;;;;1.52;0.38;;;;;;;26.87;25.01;101514.28;4898827;29;20514;-45
2022/04/01 11:12:28;;;;;;;1.38;0.47;;;;;;;26.89;24.94;101519.53;4898494;29;20398;-44
2022/04/01 11:15:07;;;;;;;1.00;0.43;;;;;;;26.88;24.91;101520.41;4897884;29;20024;-45
2022/04/01 11:17:35;;;;;;;1.45;0.47;;;;;;;26.87;24.91;101521.28;4897983;29;20501;-45
2022/04/01 11:20:28;;;;;;;1.25;0.50;;;;;;;26.87;25.14;101516.91;4898327;29;20048;-46
2022/04/01 11:22:57;;;;;;;2.05;0.57;;;;;;;26.83;25.13;101521.25;4898743;29;20434;-46
2022/04/01 11:25:25;;;;;;;1.75;0.43;;;;;;;26.84;25.05;101522.16;4897911;29;20025;-45
2022/04/01 11:27:57;;;;;;;1.45;0.40;;;;;;;26.86;25.24;101524.78;4897880;29;20067;-47
2022/04/01 11:30:28;;;;;;;1.92;0.50;;;;;;;26.87;25.24;101519.53;4898537;29;20029;-46
2022/04/01 11:32:59;;;;;;;1.00;0.40;;;;;;;26.89;24.99;101516.91;4898212;29;20493;-49
2022/04/01 11:35:32;;;;;;;3.85;0.70;;;;;;;26.91;25.00;101525.72;4898152;29;20032;-49
2022/04/01 11:38:01;;;;;;;1.80;0.30;;;;;;;26.90;25.19;101519.53;4882157;29;20488;-49
2022/04/01 11:40:32;;;;;;;2.47;0.60;;;;;;;26.86;25.20;101514.25;4881337;29;20474;-50
2022/04/01 11:43:02;;;;;;;2.55;0.60;;;;;;;26.91;25.14;101525.72;4881459;29;20123;-45
2022/04/01 11:45:34;;;;;;;0.50;0.30;;;;;;;26.89;25.22;101523.03;4898066;29;20477;-47
2022/04/01 11:48:15;;;;;;;1.63;0.40;;;;;;;26.89;25.19;101515.16;4897688;29;20088;-47
2022/04/01 11:50:45;;;;;;;0.95;0.30;;;;;;;26.94;24.93;101517.84;4898184;29;20047;-46
2022/04/01 11:53:23;;;;;;;1.48;0.52;;;;;;;26.97;25.19;101509.97;4882708;29;20096;-50